createdAt,value
2022-10-12T00:00:51.353Z,99.00
2022-10-12T00:03:19.903Z,98.90
2022-10-12T00:05:48.302Z,98.90
2022-10-12T00:08:16.259Z,98.80
2022-10-12T00:10:44.950Z,98.90
2022-10-12T00:13:12.924Z,98.90
2022-10-12T00:15:41.524Z,98.90
2022-10-12T00:18:10.870Z,99.10
2022-10-12T00:20:40.060Z,99.40
2022-10-12T00:23:08.481Z,99.40
2022-10-12T00:25:38.481Z,99.40
2022-10-12T00:28:07.315Z,99.30
2022-10-12T00:30:35.849Z,99.10
2022-10-12T00:33:03.793Z,99.10
2022-10-12T00:35:33.095Z,99.20
2022-10-12T00:38:01.030Z,99.50
2022-10-12T00:40:29.171Z,99.50
2022-10-12T00:42:57.143Z,99.00
2022-10-12T00:45:26.743Z,98.90
2022-10-12T00:47:58.219Z,98.70
2022-10-12T00:50:28.652Z,98.80
2022-10-12T00:53:03.654Z,98.80
2022-10-12T00:55:35.667Z,98.90
2022-10-12T00:58:05.503Z,99.00
2022-10-12T01:00:33.513Z,98.90
2022-10-12T01:03:01.962Z,98.80
2022-10-12T01:05:30.034Z,98.70
2022-10-12T01:08:00.670Z,98.90
2022-10-12T01:10:28.758Z,98.90
2022-10-12T01:12:56.671Z,99.10
2022-10-12T01:15:30.215Z,99.00
2022-10-12T01:18:07.376Z,99.00
2022-10-12T01:20:46.733Z,99.20
2022-10-12T01:23:48.111Z,99.40
2022-10-12T01:26:47.051Z,99.30
2022-10-12T01:29:32.095Z,99.60
2022-10-12T01:32:09.871Z,99.70
2022-10-12T01:34:46.347Z,99.30
2022-10-12T01:37:21.910Z,99.30
2022-10-12T01:39:53.747Z,99.30
2022-10-12T01:42:26.562Z,99.30
2022-10-12T01:45:03.331Z,99.60
2022-10-12T01:47:33.775Z,99.50
2022-10-12T01:50:02.899Z,99.60
2022-10-12T01:52:32.931Z,99.50
2022-10-12T01:55:24.489Z,99.10
2022-10-12T01:58:11.122Z,99.60
2022-10-12T02:00:44.522Z,99.60
2022-10-12T02:03:20.735Z,99.70
2022-10-12T02:05:54.543Z,99.70
2022-10-12T02:08:27.417Z,99.60
2022-10-12T02:10:59.698Z,99.30
2022-10-12T02:13:32.647Z,99.50
2022-10-12T02:16:03.168Z,99.50
2022-10-12T02:18:36.411Z,99.30
2022-10-12T02:21:05.445Z,99.90
2022-10-12T02:23:35.060Z,99.80
2022-10-12T02:26:04.113Z,99.60
2022-10-12T02:28:35.596Z,99.80
2022-10-12T02:31:10.761Z,99.70
2022-10-12T02:33:46.363Z,99.70
2022-10-12T02:36:19.284Z,99.90
2022-10-12T02:38:53.808Z,99.90
2022-10-12T02:41:29.854Z,99.70
2022-10-12T02:44:01.372Z,99.70
2022-10-12T02:46:31.114Z,99.90
2022-10-12T02:49:01.799Z,99.90
2022-10-12T02:51:30.898Z,99.80
2022-10-12T02:53:59.198Z,99.90
2022-10-12T02:56:27.564Z,99.80
2022-10-12T02:58:55.618Z,99.90
2022-10-12T03:01:23.865Z,99.90
2022-10-12T03:03:51.948Z,99.90
2022-10-12T03:06:21.460Z,99.90
2022-10-12T03:08:49.402Z,99.90
2022-10-12T03:11:17.551Z,99.70
2022-10-12T03:13:45.503Z,99.80
2022-10-12T03:16:13.631Z,99.70
2022-10-12T03:18:41.660Z,99.90
2022-10-12T03:21:10.825Z,99.90
2022-10-12T03:23:40.670Z,99.90
2022-10-12T03:26:09.200Z,99.90
2022-10-12T03:28:37.390Z,99.90
2022-10-12T03:31:05.927Z,99.90
2022-10-12T03:33:33.907Z,99.90
2022-10-12T03:36:02.019Z,99.90
2022-10-12T03:38:30.184Z,99.90
2022-10-12T03:41:04.184Z,99.90
2022-10-12T03:43:35.772Z,99.90
2022-10-12T03:46:03.819Z,99.90
2022-10-12T03:48:31.842Z,99.90
2022-10-12T03:50:59.924Z,99.90
2022-10-12T03:53:27.971Z,99.90
2022-10-12T03:55:55.941Z,99.90
2022-10-12T03:58:25.333Z,99.90
2022-10-12T04:00:54.127Z,99.90
2022-10-12T04:03:22.855Z,99.90
2022-10-12T04:05:54.973Z,99.90
2022-10-12T04:08:23.322Z,99.90
2022-10-12T04:10:51.481Z,99.90
2022-10-12T04:13:24.086Z,99.90
2022-10-12T04:15:53.532Z,99.90
2022-10-12T04:18:21.553Z,99.90
2022-10-12T04:20:50.081Z,99.90
2022-10-12T04:23:18.119Z,99.90
2022-10-12T04:25:46.195Z,99.90
2022-10-12T04:28:14.392Z,99.90
2022-10-12T04:30:42.456Z,99.70
2022-10-12T04:33:11.811Z,99.90
2022-10-12T04:35:39.947Z,99.90
2022-10-12T04:38:07.942Z,99.60
2022-10-12T04:40:36.064Z,99.90
2022-10-12T04:43:04.035Z,99.90
2022-10-12T04:45:32.096Z,99.90
2022-10-12T04:48:00.279Z,99.90
2022-10-12T04:50:30.290Z,99.90
2022-10-12T04:52:58.400Z,99.90
2022-10-12T04:55:26.468Z,99.90
2022-10-12T04:57:54.630Z,99.90
2022-10-12T05:00:22.717Z,99.90
2022-10-12T05:02:50.852Z,99.80
2022-10-12T05:05:18.762Z,99.70
2022-10-12T05:07:48.054Z,99.50
2022-10-12T05:10:16.119Z,99.50
2022-10-12T05:12:44.328Z,99.50
2022-10-12T05:15:13.341Z,99.60
2022-10-12T05:17:41.412Z,99.30
2022-10-12T05:20:11.156Z,99.20
2022-10-12T05:22:39.178Z,99.30
2022-10-12T05:25:10.686Z,99.30
2022-10-12T05:27:39.144Z,99.80
2022-10-12T05:30:08.947Z,99.70
2022-10-12T05:32:37.358Z,99.90
2022-10-12T05:35:05.882Z,99.90
2022-10-12T05:37:34.611Z,99.90
2022-10-12T05:40:02.699Z,99.90
2022-10-12T05:42:32.072Z,99.70
2022-10-12T05:45:00.063Z,99.60
2022-10-12T05:47:28.602Z,99.80
2022-10-12T05:49:56.733Z,99.60
2022-10-12T05:52:24.752Z,99.80
2022-10-12T05:54:52.723Z,99.60
2022-10-12T05:57:20.715Z,99.60
2022-10-12T05:59:50.100Z,99.80
2022-10-12T06:02:19.558Z,99.60
2022-10-12T06:04:47.612Z,99.40
2022-10-12T06:07:15.553Z,99.60
2022-10-12T06:09:44.714Z,99.50
2022-10-12T06:12:12.943Z,99.60
2022-10-12T06:14:40.900Z,99.50
2022-10-12T06:17:10.497Z,99.80
2022-10-12T06:19:38.465Z,99.70
2022-10-12T06:22:06.469Z,99.60
2022-10-12T06:24:34.486Z,99.50
2022-10-12T06:27:02.510Z,99.60
2022-10-12T06:29:30.456Z,99.50
2022-10-12T06:31:58.390Z,99.40
2022-10-12T06:34:27.799Z,99.30
2022-10-12T06:37:00.866Z,99.40
2022-10-12T06:39:29.746Z,99.00
2022-10-12T06:41:57.831Z,99.30
2022-10-12T06:44:25.956Z,98.80
2022-10-12T06:46:54.027Z,99.00
2022-10-12T06:49:21.966Z,98.70
2022-10-12T06:51:51.375Z,98.50
2022-10-12T06:54:19.321Z,98.40
2022-10-12T06:56:47.564Z,98.60
2022-10-12T06:59:15.730Z,98.60
2022-10-12T07:01:43.726Z,98.60
2022-10-12T07:04:11.735Z,98.60
2022-10-12T07:06:39.702Z,98.40
2022-10-12T07:09:09.159Z,98.20
2022-10-12T07:11:37.190Z,97.60
2022-10-12T07:14:05.173Z,98.00
2022-10-12T07:16:33.292Z,97.60
2022-10-12T07:19:01.460Z,97.70
2022-10-12T07:21:29.528Z,97.50
2022-10-12T07:23:57.601Z,97.50
2022-10-12T07:26:26.888Z,96.70
2022-10-12T07:28:54.933Z,96.90
2022-10-12T07:31:22.935Z,96.80
2022-10-12T07:33:51.048Z,96.20
2022-10-12T07:36:21.570Z,96.40
2022-10-12T07:38:49.991Z,96.40
2022-10-12T07:41:18.679Z,95.90
2022-10-12T07:43:48.087Z,96.00
2022-10-12T07:46:16.131Z,95.70
2022-10-12T07:48:49.095Z,95.50
2022-10-12T07:51:18.761Z,95.10
2022-10-12T07:53:47.771Z,95.30
2022-10-12T07:56:18.787Z,95.10
2022-10-12T07:58:50.972Z,95.20
2022-10-12T08:01:20.366Z,95.00
2022-10-12T08:03:48.475Z,94.90
2022-10-12T08:06:19.758Z,95.10
2022-10-12T08:08:47.930Z,95.00
2022-10-12T08:11:16.908Z,94.20
2022-10-12T08:13:46.278Z,94.40
2022-10-12T08:16:18.199Z,94.20
2022-10-12T08:18:46.461Z,94.30
2022-10-12T08:21:15.767Z,94.10
2022-10-12T08:23:45.100Z,94.50
2022-10-12T08:26:14.562Z,94.70
2022-10-12T08:28:42.973Z,94.30
2022-10-12T08:31:11.922Z,93.90
2022-10-12T08:33:41.635Z,94.10
2022-10-12T08:36:10.332Z,93.90
2022-10-12T08:38:39.357Z,93.40
2022-10-12T08:41:27.939Z,93.30
2022-10-12T08:44:17.002Z,92.70
2022-10-12T08:46:45.198Z,93.10
2022-10-12T08:49:18.110Z,93.40
2022-10-12T08:51:49.461Z,93.30
2022-10-12T08:54:23.957Z,93.70
2022-10-12T08:56:55.135Z,93.50
2022-10-12T08:59:23.331Z,92.80
2022-10-12T09:02:15.551Z,93.00
2022-10-12T09:04:54.546Z,93.00
2022-10-12T09:07:28.099Z,92.80
2022-10-12T09:10:06.892Z,92.60
2022-10-12T09:12:45.170Z,92.60
2022-10-12T09:15:17.447Z,93.00
2022-10-12T09:17:50.014Z,92.40
2022-10-12T09:20:22.394Z,92.20
2022-10-12T09:22:52.578Z,92.30
2022-10-12T09:25:25.312Z,92.20
2022-10-12T09:27:53.635Z,92.00
2022-10-12T09:30:22.332Z,92.40
2022-10-12T09:33:00.569Z,92.10
2022-10-12T09:35:29.958Z,91.70
2022-10-12T09:37:58.050Z,92.00
2022-10-12T09:40:30.914Z,91.60
2022-10-12T09:43:00.820Z,91.80
2022-10-12T09:45:31.151Z,91.90
2022-10-12T09:48:18.003Z,92.10
2022-10-12T09:50:51.437Z,92.30
2022-10-12T09:53:30.772Z,92.20
2022-10-12T09:56:02.334Z,92.40
2022-10-12T09:58:31.317Z,92.40
2022-10-12T10:01:23.985Z,92.60
2022-10-12T10:04:09.902Z,92.20
2022-10-12T10:06:41.034Z,91.80
2022-10-12T10:09:30.739Z,92.10
2022-10-12T10:12:12.200Z,91.60
2022-10-12T10:14:42.794Z,91.70
2022-10-12T10:17:15.207Z,91.60
2022-10-12T10:19:51.132Z,91.80
2022-10-12T10:22:21.767Z,91.60
2022-10-12T10:24:57.654Z,91.70
2022-10-12T10:27:36.902Z,91.00
2022-10-12T10:30:40.894Z,91.10
2022-10-12T10:33:15.991Z,91.10
2022-10-12T10:35:58.349Z,90.90
2022-10-12T10:38:28.123Z,90.80
2022-10-12T10:40:58.208Z,90.60
2022-10-12T10:43:29.609Z,90.60
2022-10-12T10:46:01.024Z,90.70
2022-10-12T10:48:31.727Z,90.90
2022-10-12T10:51:02.033Z,90.70
2022-10-12T10:53:35.132Z,90.40
2022-10-12T10:56:09.307Z,90.20
2022-10-12T10:58:42.031Z,89.60
2022-10-12T11:01:18.462Z,89.40
2022-10-12T11:03:54.981Z,88.20
2022-10-12T11:06:33.395Z,88.60
2022-10-12T11:09:06.471Z,87.50
2022-10-12T11:11:39.092Z,89.00
2022-10-12T11:14:16.336Z,87.10
2022-10-12T11:16:48.767Z,87.50
2022-10-12T11:19:25.115Z,88.30
2022-10-12T11:21:55.706Z,89.80
2022-10-12T11:24:29.487Z,88.20
2022-10-12T11:27:03.853Z,86.50
2022-10-12T11:29:31.827Z,87.80
2022-10-12T11:32:04.168Z,87.50
2022-10-12T11:34:40.312Z,85.10
2022-10-12T11:37:20.513Z,85.30
2022-10-12T11:39:53.539Z,85.10
2022-10-12T11:42:29.500Z,87.40
2022-10-12T11:45:00.281Z,89.40
2022-10-12T11:47:37.182Z,87.50
2022-10-12T11:50:08.450Z,87.90
2022-10-12T11:52:41.833Z,88.00
2022-10-12T11:55:30.027Z,86.70
2022-10-12T11:58:02.004Z,87.60
2022-10-12T12:00:35.682Z,86.20
2022-10-12T12:03:17.212Z,87.00
2022-10-12T12:05:45.220Z,88.60
2022-10-12T12:08:23.143Z,88.60
2022-10-12T12:11:06.322Z,87.90
2022-10-12T12:13:34.558Z,86.50
2022-10-12T12:16:33.710Z,87.10
2022-10-12T12:19:35.901Z,87.00
2022-10-12T12:22:48.703Z,87.50
2022-10-12T12:25:34.697Z,87.40
2022-10-12T12:28:21.222Z,87.00
2022-10-12T12:30:58.859Z,87.60
2022-10-12T12:33:30.880Z,88.20
2022-10-12T12:36:02.571Z,86.30
2022-10-12T12:38:33.041Z,87.20
2022-10-12T12:41:05.044Z,86.50
2022-10-12T12:43:40.523Z,86.70
2022-10-12T12:46:11.431Z,85.30
2022-10-12T12:48:58.263Z,85.60
2022-10-12T12:51:36.214Z,85.40
2022-10-12T12:54:07.546Z,85.20
2022-10-12T12:56:43.277Z,85.60
2022-10-12T12:59:46.535Z,86.00
2022-10-12T13:02:49.245Z,85.10
2022-10-12T13:06:02.912Z,84.50
2022-10-12T13:08:42.355Z,86.00
2022-10-12T13:11:35.667Z,86.20
2022-10-12T13:14:15.359Z,86.30
2022-10-12T13:17:31.772Z,87.30
2022-10-12T13:19:58.700Z,87.20
2022-10-12T13:22:30.287Z,86.50
2022-10-12T13:25:02.623Z,85.90
2022-10-12T13:27:35.579Z,85.40
2022-10-12T13:30:09.537Z,85.60
2022-10-12T13:32:47.126Z,84.10
2022-10-12T13:35:22.972Z,85.00
2022-10-12T13:38:02.018Z,85.80
2022-10-12T13:40:32.259Z,83.70
2022-10-12T13:43:18.607Z,84.80
2022-10-12T13:45:47.042Z,85.10
2022-10-12T13:48:34.071Z,84.40
2022-10-12T13:51:24.876Z,85.40
2022-10-12T13:53:52.847Z,84.40
2022-10-12T13:56:24.068Z,85.50
2022-10-12T13:58:56.000Z,86.00
2022-10-12T14:01:24.032Z,84.40
2022-10-12T14:03:53.528Z,83.40
2022-10-12T14:06:27.913Z,83.10
2022-10-12T14:08:58.177Z,83.50
2022-10-12T14:11:27.399Z,84.50
2022-10-12T14:13:56.705Z,84.80
2022-10-12T14:16:24.849Z,84.90
2022-10-12T14:18:54.199Z,82.50
2022-10-12T14:21:23.929Z,82.30
2022-10-12T14:23:54.391Z,82.50
2022-10-12T14:26:30.041Z,82.10
2022-10-12T14:28:59.763Z,83.00
2022-10-12T14:31:52.096Z,83.20
2022-10-12T14:34:40.739Z,82.20
2022-10-12T14:37:29.748Z,81.60
2022-10-12T14:40:02.461Z,83.70
2022-10-12T14:42:35.530Z,84.00
2022-10-12T14:45:07.315Z,84.30
2022-10-12T14:47:39.666Z,84.50
2022-10-12T14:50:10.624Z,81.80
2022-10-12T14:52:43.168Z,80.50
2022-10-12T14:55:15.826Z,80.80
2022-10-12T14:57:43.955Z,80.60
2022-10-12T15:00:15.647Z,80.80
2022-10-12T15:02:44.518Z,80.70
2022-10-12T15:05:16.742Z,80.60
2022-10-12T15:07:46.822Z,80.50
2022-10-12T15:10:15.162Z,81.30
2022-10-12T15:12:43.670Z,81.70
2022-10-12T15:15:28.744Z,82.10
2022-10-12T15:17:57.405Z,81.80
2022-10-12T15:20:27.437Z,82.00
2022-10-12T15:22:55.479Z,81.70
2022-10-12T15:25:28.127Z,82.30
2022-10-12T15:27:56.094Z,82.50
2022-10-12T15:30:24.663Z,82.50
2022-10-12T15:32:52.718Z,82.90
2022-10-12T15:35:22.872Z,83.60
2022-10-12T15:37:52.964Z,84.00
2022-10-12T15:40:22.402Z,84.60
2022-10-12T15:42:50.796Z,85.30
2022-10-12T15:45:24.102Z,85.10
2022-10-12T15:47:53.411Z,85.90
2022-10-12T15:50:24.592Z,86.20
2022-10-12T15:52:54.377Z,86.10
2022-10-12T15:55:24.216Z,86.50
2022-10-12T15:57:52.773Z,87.10
2022-10-12T16:00:23.743Z,87.80
2022-10-12T16:02:51.814Z,87.40
2022-10-12T16:05:21.964Z,87.20
2022-10-12T16:07:50.301Z,87.40
2022-10-12T16:10:21.743Z,87.80
2022-10-12T16:12:51.744Z,88.00
2022-10-12T16:15:22.412Z,88.00
2022-10-12T16:17:50.613Z,88.30
2022-10-12T16:20:19.170Z,88.10
2022-10-12T16:22:47.242Z,88.40
2022-10-12T16:25:21.445Z,88.60
2022-10-12T16:27:53.661Z,88.90
2022-10-12T16:30:22.469Z,89.20
2022-10-12T16:32:50.955Z,89.50
2022-10-12T16:35:19.609Z,89.90
2022-10-12T16:37:47.821Z,90.10
2022-10-12T16:40:16.966Z,90.30
2022-10-12T16:42:46.371Z,90.50
2022-10-12T16:45:14.600Z,90.60
2022-10-12T16:47:43.194Z,90.70
2022-10-12T16:50:11.354Z,90.80
2022-10-12T16:52:39.523Z,91.00
2022-10-12T16:55:08.461Z,91.00
2022-10-12T16:57:36.475Z,91.00
2022-10-12T17:00:07.247Z,90.90
2022-10-12T17:02:36.329Z,91.00
2022-10-12T17:05:04.717Z,91.30
2022-10-12T17:07:33.083Z,91.30
2022-10-12T17:10:01.035Z,91.30
2022-10-12T17:12:29.726Z,91.40
2022-10-12T17:14:58.463Z,91.70
2022-10-12T17:17:28.891Z,91.80
2022-10-12T17:19:56.958Z,92.00
2022-10-12T17:22:24.960Z,92.00
2022-10-12T17:24:53.274Z,92.90
2022-10-12T17:27:21.371Z,92.80
2022-10-12T17:29:49.451Z,93.60
2022-10-12T17:32:18.536Z,93.80
2022-10-12T17:34:48.585Z,93.50
2022-10-12T17:37:16.913Z,93.30
2022-10-12T17:39:48.299Z,93.20
2022-10-12T17:42:16.685Z,93.40
2022-10-12T17:44:45.097Z,93.40
2022-10-12T17:47:13.079Z,93.70
2022-10-12T17:49:41.282Z,93.40
2022-10-12T17:52:10.733Z,93.50
2022-10-12T17:54:39.134Z,93.40
2022-10-12T17:57:07.303Z,93.60
2022-10-12T17:59:36.254Z,93.50
2022-10-12T18:02:09.194Z,93.60
2022-10-12T18:04:37.636Z,93.50
2022-10-12T18:07:08.135Z,93.60
2022-10-12T18:09:37.823Z,93.50
2022-10-12T18:12:05.990Z,93.40
2022-10-12T18:14:34.314Z,93.60
2022-10-12T18:17:02.290Z,94.40
2022-10-12T18:19:30.399Z,94.50
2022-10-12T18:21:58.977Z,94.00
2022-10-12T18:24:27.180Z,94.20
2022-10-12T18:26:56.677Z,94.00
2022-10-12T18:29:24.842Z,93.80
2022-10-12T18:31:53.589Z,93.70
2022-10-12T18:34:24.431Z,94.20
2022-10-12T18:36:53.309Z,94.20
2022-10-12T18:39:21.591Z,94.20
2022-10-12T18:41:52.758Z,94.20
2022-10-12T18:44:22.403Z,94.10
2022-10-12T18:46:50.640Z,94.00
2022-10-12T18:49:18.676Z,94.00
2022-10-12T18:51:49.662Z,93.90
2022-10-12T18:54:17.930Z,94.40
2022-10-12T18:56:46.284Z,94.40
2022-10-12T18:59:18.166Z,94.30
2022-10-12T19:01:48.083Z,94.30
2022-10-12T19:04:16.604Z,94.10
2022-10-12T19:06:44.791Z,94.10
2022-10-12T19:09:14.195Z,94.10
2022-10-12T19:11:42.323Z,94.20
2022-10-12T19:14:14.645Z,94.20
2022-10-12T19:16:43.523Z,94.30
2022-10-12T19:19:20.879Z,94.10
2022-10-12T19:21:49.872Z,94.40
2022-10-12T19:24:18.434Z,94.60
2022-10-12T19:26:46.580Z,94.70
2022-10-12T19:29:15.036Z,94.70
2022-10-12T19:31:46.282Z,94.60
2022-10-12T19:34:18.051Z,94.40
2022-10-12T19:36:46.701Z,94.50
2022-10-12T19:39:16.822Z,94.80
2022-10-12T19:41:45.508Z,94.60
2022-10-12T19:44:13.811Z,94.50
2022-10-12T19:46:47.113Z,94.80
2022-10-12T19:49:18.293Z,94.90
2022-10-12T19:51:46.414Z,95.00
2022-10-12T19:54:16.369Z,94.80
2022-10-12T19:56:44.407Z,94.80
2022-10-12T19:59:12.722Z,95.00
2022-10-12T20:01:40.933Z,95.20
2022-10-12T20:04:11.861Z,95.20
2022-10-12T20:06:42.048Z,95.40
2022-10-12T20:09:10.674Z,95.40
2022-10-12T20:11:38.766Z,95.30
2022-10-12T20:14:07.497Z,95.20
2022-10-12T20:16:35.903Z,95.30
2022-10-12T20:19:04.202Z,95.10
2022-10-12T20:21:32.320Z,95.00
2022-10-12T20:24:01.692Z,95.20
2022-10-12T20:26:29.861Z,95.20
2022-10-12T20:28:58.170Z,95.20
2022-10-12T20:31:27.960Z,95.70
2022-10-12T20:33:58.125Z,95.60
2022-10-12T20:36:28.067Z,95.80
2022-10-12T20:38:56.533Z,95.80
2022-10-12T20:41:26.432Z,95.70
2022-10-12T20:43:56.458Z,95.40
2022-10-12T20:46:24.759Z,95.20
2022-10-12T20:48:58.058Z,95.50
2022-10-12T20:51:29.088Z,96.40
2022-10-12T20:53:59.259Z,95.70
2022-10-12T20:56:29.227Z,95.60
2022-10-12T20:58:57.415Z,95.30
2022-10-12T21:01:26.521Z,95.30
2022-10-12T21:03:55.119Z,95.90
2022-10-12T21:06:23.860Z,95.70
2022-10-12T21:08:52.541Z,96.00
2022-10-12T21:11:21.026Z,95.90
2022-10-12T21:13:50.873Z,95.90
2022-10-12T21:16:19.121Z,96.10
2022-10-12T21:18:47.085Z,96.00
2022-10-12T21:21:17.105Z,96.10
2022-10-12T21:23:46.544Z,95.80
2022-10-12T21:26:16.511Z,95.80
2022-10-12T21:28:45.479Z,95.90
2022-10-12T21:31:15.568Z,95.80
2022-10-12T21:33:43.643Z,95.70
2022-10-12T21:36:13.778Z,96.30
2022-10-12T21:38:42.807Z,96.00
2022-10-12T21:41:12.399Z,96.00
2022-10-12T21:43:41.430Z,96.10
2022-10-12T21:46:11.855Z,95.70
2022-10-12T21:48:41.281Z,95.90
2022-10-12T21:51:10.109Z,95.90
2022-10-12T21:53:39.232Z,95.80
2022-10-12T21:56:08.491Z,96.20
2022-10-12T21:58:36.608Z,96.20
2022-10-12T22:01:06.220Z,96.10
2022-10-12T22:03:34.248Z,96.60
2022-10-12T22:06:04.147Z,97.00
2022-10-12T22:08:32.162Z,96.60
2022-10-12T22:11:05.534Z,96.40
2022-10-12T22:13:33.671Z,96.40
2022-10-12T22:16:02.676Z,96.20
2022-10-12T22:18:30.787Z,96.20
2022-10-12T22:20:58.937Z,96.20
2022-10-12T22:23:28.259Z,96.30
2022-10-12T22:26:00.301Z,96.20
2022-10-12T22:28:28.650Z,96.20
2022-10-12T22:30:56.786Z,96.40
2022-10-12T22:33:25.155Z,96.40
2022-10-12T22:35:54.610Z,96.40
2022-10-12T22:38:23.279Z,96.20
2022-10-12T22:40:59.905Z,96.40
2022-10-12T22:43:29.346Z,96.40
2022-10-12T22:45:57.657Z,96.40
2022-10-12T22:48:26.447Z,96.10
2022-10-12T22:50:55.075Z,96.20
2022-10-12T22:53:24.890Z,96.10
2022-10-12T22:56:00.631Z,95.90
2022-10-12T22:58:29.351Z,96.20
2022-10-12T23:01:03.144Z,96.00
2022-10-12T23:03:32.216Z,96.00
2022-10-12T23:06:00.760Z,96.30
2022-10-12T23:08:31.362Z,96.50
2022-10-12T23:11:05.747Z,96.20
2022-10-12T23:13:34.430Z,96.20
2022-10-12T23:16:03.423Z,96.30
2022-10-12T23:18:32.042Z,96.30
2022-10-12T23:21:00.000Z,96.00
2022-10-12T23:23:27.929Z,95.70
2022-10-12T23:26:05.627Z,95.50
2022-10-12T23:28:34.111Z,95.60
2022-10-12T23:31:04.910Z,95.70
2022-10-12T23:33:33.118Z,95.70
2022-10-12T23:36:03.187Z,95.80
2022-10-12T23:38:32.595Z,95.60
2022-10-12T23:41:00.606Z,95.60
2022-10-12T23:43:30.488Z,95.60
2022-10-12T23:45:58.544Z,95.70
2022-10-12T23:48:27.489Z,95.70
2022-10-12T23:50:55.603Z,95.70
2022-10-12T23:53:25.238Z,95.70
2022-10-12T23:55:54.201Z,95.80
2022-10-12T23:58:22.775Z,95.90
